createdAt,value
2022-11-29T00:03:49.014Z,11.20
2022-11-29T00:08:51.421Z,11.20
2022-11-29T00:13:53.902Z,11.20
2022-11-29T00:18:56.278Z,11.00
2022-11-29T00:23:58.695Z,11.00
2022-11-29T00:29:01.028Z,11.00
2022-11-29T00:34:06.791Z,11.00
2022-11-29T00:39:11.747Z,10.90
2022-11-29T00:44:19.825Z,11.00
2022-11-29T00:49:22.871Z,11.10
2022-11-29T00:54:25.344Z,11.10
2022-11-29T00:59:27.901Z,10.90
2022-11-29T01:04:30.275Z,10.90
2022-11-29T01:09:32.557Z,11.00
2022-11-29T01:14:35.561Z,11.10
2022-11-29T01:19:38.980Z,11.20
2022-11-29T01:24:41.489Z,11.20
2022-11-29T01:29:43.885Z,11.20
2022-11-29T01:34:46.566Z,11.30
2022-11-29T01:39:49.201Z,11.40
2022-11-29T01:45:20.232Z,11.30
2022-11-29T01:50:22.787Z,11.30
2022-11-29T01:55:25.334Z,11.20
2022-11-29T02:00:27.836Z,11.10
2022-11-29T02:05:30.705Z,11.10
2022-11-29T02:10:51.316Z,10.90
2022-11-29T02:16:24.520Z,11.00
2022-11-29T02:21:39.098Z,11.20
2022-11-29T02:27:11.676Z,11.20
2022-11-29T02:32:29.175Z,11.30
2022-11-29T02:37:57.144Z,11.30
2022-11-29T02:43:10.672Z,11.20
2022-11-29T02:49:00.921Z,11.30
2022-11-29T02:54:21.311Z,11.20
2022-11-29T02:59:41.680Z,11.20
2022-11-29T03:05:12.527Z,11.20
2022-11-29T03:10:34.887Z,11.20
2022-11-29T03:16:03.451Z,11.30
2022-11-29T03:21:13.812Z,11.40
2022-11-29T03:26:40.149Z,11.40
2022-11-29T03:32:22.907Z,11.50
2022-11-29T03:37:40.213Z,11.50
2022-11-29T03:43:04.385Z,11.40
2022-11-29T03:48:14.553Z,11.40
2022-11-29T03:53:47.425Z,11.30
2022-11-29T03:59:09.705Z,11.30
2022-11-29T04:04:37.249Z,11.40
2022-11-29T04:09:42.552Z,11.50
2022-11-29T04:15:25.402Z,11.40
2022-11-29T04:20:53.339Z,11.40
2022-11-29T04:26:06.644Z,11.30
2022-11-29T04:31:33.398Z,11.20
2022-11-29T04:36:53.405Z,11.30
2022-11-29T04:42:15.998Z,11.40
2022-11-29T04:47:57.097Z,11.40
2022-11-29T04:53:25.598Z,11.40
2022-11-29T04:58:55.746Z,11.30
2022-11-29T05:04:16.666Z,11.20
2022-11-29T05:09:40.192Z,11.20
2022-11-29T05:15:13.263Z,11.30
2022-11-29T05:20:34.668Z,11.40
2022-11-29T05:26:00.038Z,11.30
2022-11-29T05:31:21.367Z,11.30
2022-11-29T05:36:35.996Z,11.40
2022-11-29T05:41:59.356Z,11.20
2022-11-29T05:47:05.103Z,11.20
2022-11-29T05:52:24.943Z,11.10
2022-11-29T05:57:41.290Z,11.20
2022-11-29T06:03:24.905Z,11.20
2022-11-29T06:08:48.018Z,11.40
2022-11-29T06:14:43.098Z,11.40
2022-11-29T06:20:04.166Z,11.40
2022-11-29T06:25:23.491Z,11.50
2022-11-29T06:30:33.515Z,11.40
2022-11-29T06:35:47.740Z,11.30
2022-11-29T06:40:50.848Z,11.40
2022-11-29T06:46:03.212Z,11.40
2022-11-29T06:51:27.385Z,11.50
2022-11-29T06:56:57.102Z,11.50
2022-11-29T07:02:27.837Z,11.50
2022-11-29T07:07:31.323Z,11.50
2022-11-29T07:12:34.069Z,11.50
2022-11-29T07:17:52.705Z,11.50
2022-11-29T07:23:22.011Z,11.30
2022-11-29T07:28:49.143Z,11.30
2022-11-29T07:34:12.639Z,11.30
2022-11-29T07:39:31.300Z,11.10
2022-11-29T07:44:51.378Z,11.00
2022-11-29T07:49:53.832Z,10.90
2022-11-29T07:54:56.462Z,10.90
2022-11-29T07:59:58.775Z,10.90
2022-11-29T08:05:01.664Z,10.90
2022-11-29T08:10:06.876Z,10.90
2022-11-29T08:15:10.062Z,10.90
2022-11-29T08:20:14.136Z,10.80
2022-11-29T08:25:16.691Z,10.60
2022-11-29T08:30:22.081Z,10.60
2022-11-29T08:35:24.800Z,10.80
2022-11-29T08:40:27.129Z,10.80
2022-11-29T08:45:29.488Z,10.90
2022-11-29T08:50:31.936Z,10.90
2022-11-29T08:55:37.285Z,10.80
2022-11-29T09:00:40.526Z,11.00
2022-11-29T09:05:43.214Z,10.80
2022-11-29T09:10:46.956Z,10.80
2022-11-29T09:15:49.266Z,10.70
2022-11-29T09:20:51.600Z,10.90
2022-11-29T09:25:54.440Z,10.80
2022-11-29T09:31:03.165Z,10.80
2022-11-29T09:36:07.062Z,10.80
2022-11-29T09:41:36.893Z,10.80
2022-11-29T09:46:48.023Z,10.90
2022-11-29T09:52:14.561Z,11.00
2022-11-29T09:57:19.117Z,11.00
2022-11-29T10:02:30.703Z,11.00
2022-11-29T10:07:56.233Z,11.00
2022-11-29T10:13:20.093Z,11.00
2022-11-29T10:18:23.309Z,11.00
2022-11-29T10:23:38.735Z,11.20
2022-11-29T10:28:47.273Z,11.10
2022-11-29T10:33:50.139Z,11.10
2022-11-29T10:38:56.887Z,11.10
2022-11-29T10:44:00.205Z,11.10
2022-11-29T10:49:06.226Z,11.20
2022-11-29T10:54:17.164Z,11.20
2022-11-29T10:59:25.148Z,11.20
2022-11-29T11:04:42.583Z,11.30
2022-11-29T11:09:50.847Z,11.40
2022-11-29T11:15:31.629Z,11.50
2022-11-29T11:20:39.781Z,11.50
2022-11-29T11:25:43.047Z,11.40
2022-11-29T11:30:52.189Z,11.30
2022-11-29T11:36:23.436Z,11.40
2022-11-29T11:41:48.256Z,11.40
2022-11-29T11:46:51.416Z,11.40
2022-11-29T11:51:53.737Z,11.50
2022-11-29T11:56:56.216Z,11.60
2022-11-29T12:01:58.508Z,11.70
2022-11-29T12:07:04.106Z,11.70
2022-11-29T12:12:18.834Z,11.70
2022-11-29T12:17:39.591Z,11.70
2022-11-29T12:23:11.117Z,11.10
2022-11-29T12:28:20.260Z,11.50
2022-11-29T12:33:39.929Z,11.50
2022-11-29T12:38:55.293Z,11.50
2022-11-29T12:44:33.226Z,11.70
2022-11-29T12:50:16.168Z,11.80
2022-11-29T12:55:26.026Z,11.80
2022-11-29T13:00:37.720Z,11.90
2022-11-29T13:05:58.188Z,12.20
2022-11-29T13:11:32.939Z,12.20
2022-11-29T13:17:00.038Z,11.90
2022-11-29T13:22:15.639Z,12.20
2022-11-29T13:27:22.257Z,12.10
2022-11-29T13:32:39.726Z,12.10
2022-11-29T13:38:24.112Z,12.10
2022-11-29T13:43:41.497Z,12.10
2022-11-29T13:48:48.777Z,11.80
2022-11-29T13:53:51.712Z,12.10
2022-11-29T13:58:54.575Z,12.10
2022-11-29T14:04:16.136Z,12.60
2022-11-29T14:09:26.080Z,13.30
2022-11-29T14:14:47.274Z,11.90
2022-11-29T14:19:49.767Z,12.00
2022-11-29T14:25:01.089Z,11.90
2022-11-29T14:30:03.984Z,11.80
2022-11-29T14:35:20.096Z,11.70
2022-11-29T14:40:37.351Z,11.70
2022-11-29T14:45:40.220Z,11.90
2022-11-29T14:50:42.609Z,12.00
2022-11-29T14:55:44.984Z,11.90
2022-11-29T15:00:47.873Z,12.00
2022-11-29T15:05:58.238Z,12.00
2022-11-29T15:11:35.318Z,11.80
2022-11-29T15:17:02.695Z,11.90
2022-11-29T15:22:14.105Z,11.70
2022-11-29T15:27:18.128Z,11.70
2022-11-29T15:32:30.797Z,11.80
2022-11-29T15:37:36.506Z,11.70
2022-11-29T15:42:50.551Z,11.80
2022-11-29T15:47:53.139Z,11.60
2022-11-29T15:52:59.887Z,11.60
2022-11-29T15:58:08.681Z,11.50
2022-11-29T16:03:28.920Z,11.80
2022-11-29T16:08:39.904Z,11.90
2022-11-29T16:13:57.926Z,12.10
2022-11-29T16:19:26.676Z,12.10
2022-11-29T16:24:29.140Z,12.20
2022-11-29T16:29:36.755Z,11.80
2022-11-29T16:34:42.138Z,11.50
2022-11-29T16:39:47.925Z,11.10
2022-11-29T16:44:54.444Z,12.00
2022-11-29T16:50:21.405Z,10.60
2022-11-29T16:55:24.236Z,10.90
2022-11-29T17:00:32.583Z,10.70
2022-11-29T17:05:37.914Z,10.50
2022-11-29T17:10:42.533Z,10.50
2022-11-29T17:15:44.861Z,10.20
2022-11-29T17:20:47.376Z,10.30
2022-11-29T17:25:59.454Z,10.10
2022-11-29T17:31:19.498Z,9.70
2022-11-29T17:36:22.035Z,10.40
2022-11-29T17:41:25.899Z,10.50
2022-11-29T17:46:33.745Z,10.60
2022-11-29T17:51:51.573Z,10.70
2022-11-29T17:56:55.237Z,11.00
2022-11-29T18:01:57.526Z,10.10
2022-11-29T18:07:01.321Z,10.00
2022-11-29T18:12:03.775Z,9.50
2022-11-29T18:17:06.283Z,9.50
2022-11-29T18:22:08.792Z,9.50
2022-11-29T18:27:11.079Z,9.80
2022-11-29T18:32:13.358Z,10.00
2022-11-29T18:37:24.057Z,10.00
2022-11-29T18:42:38.645Z,10.50
2022-11-29T18:47:40.936Z,10.60
2022-11-29T18:52:43.233Z,10.60
2022-11-29T18:57:48.831Z,10.60
2022-11-29T19:02:51.234Z,10.90
2022-11-29T19:07:53.700Z,11.10
2022-11-29T19:12:56.196Z,11.20
2022-11-29T19:17:58.740Z,11.30
2022-11-29T19:23:01.237Z,11.30
2022-11-29T19:28:04.500Z,11.30
2022-11-29T19:33:09.050Z,11.30
2022-11-29T19:38:11.816Z,11.40
2022-11-29T19:43:14.152Z,11.30
2022-11-29T19:48:16.433Z,11.20
2022-11-29T19:53:18.925Z,11.10
2022-11-29T19:58:22.454Z,11.10
2022-11-29T20:03:24.709Z,11.10
2022-11-29T20:08:27.352Z,11.00
2022-11-29T20:13:29.746Z,10.90
2022-11-29T20:18:37.070Z,11.00
2022-11-29T20:23:40.535Z,10.90
2022-11-29T20:28:43.876Z,10.90
2022-11-29T20:33:46.928Z,10.90
2022-11-29T20:39:13.522Z,10.90
2022-11-29T20:44:22.668Z,10.80
2022-11-29T20:49:25.554Z,10.80
2022-11-29T20:54:28.940Z,10.60
2022-11-29T20:59:31.448Z,10.60
2022-11-29T21:04:33.777Z,10.50
2022-11-29T21:09:36.095Z,10.70
2022-11-29T21:14:38.769Z,10.50
2022-11-29T21:19:41.547Z,10.30
2022-11-29T21:25:13.941Z,10.30
2022-11-29T21:30:22.308Z,10.30
2022-11-29T21:35:24.638Z,10.30
2022-11-29T21:40:27.332Z,10.20
2022-11-29T21:45:29.695Z,10.20
2022-11-29T21:50:32.184Z,10.10
2022-11-29T21:55:34.423Z,10.10
2022-11-29T22:00:37.670Z,10.20
2022-11-29T22:05:40.157Z,10.20
2022-11-29T22:10:42.540Z,10.20
2022-11-29T22:15:44.916Z,10.30
2022-11-29T22:20:47.287Z,10.20
2022-11-29T22:25:49.583Z,10.30
2022-11-29T22:30:51.943Z,10.30
2022-11-29T22:35:54.307Z,10.40
2022-11-29T22:41:04.869Z,10.20
2022-11-29T22:46:13.148Z,10.00
2022-11-29T22:51:21.166Z,10.00
2022-11-29T22:56:27.094Z,10.00
2022-11-29T23:01:31.594Z,10.10
2022-11-29T23:06:40.116Z,9.90
2022-11-29T23:11:50.753Z,9.90
2022-11-29T23:16:53.245Z,9.80
2022-11-29T23:21:56.381Z,9.70
2022-11-29T23:26:58.664Z,9.70
2022-11-29T23:32:01.000Z,9.80
2022-11-29T23:37:04.453Z,9.80
2022-11-29T23:42:06.899Z,9.80
2022-11-29T23:47:09.151Z,9.70
2022-11-29T23:52:11.561Z,9.90
2022-11-29T23:57:13.809Z,9.80
